Terminal Aerodrome Forecast
Issued by NWS

Home | Current Version | Previous Version | Text Only | Print | Product List | Glossary Off
Versions: 1 2 3 4 5 6 7 8 9 10 11 12 13 14 15 16 17 18 19 20 21

000
FTUS43 KICT 252335
TAFCNU
TAF
KCNU 252335Z 2600/2624 01005KT P6SM FEW050 BKN200
     FM260800 07006KT P6SM VCTS BKN030CB
     FM261300 VRB04KT P6SM VCSH SCT025 BKN100
     FM261700 13006KT P6SM SCT030=

USA.gov is the U.S. government's official web portal to all federal, state and local government web resources and services.